Time;durP1;ratioP1;P1;durP2;ratioP2;P2;SDS_P1;SDS_P2;PMS_P1;PMS_P2;Temp;Humidity;BMP_temperature;BMP_pressure;BME280_temperature;BME280_humidity;BME280_pressure;Samples;Min_cycle;Max_cycle;Signal;HPM_P1;HPM_P2
2023/12/15 00:00:40;;;;;;;;;;;;;;;4.80;100.00;99261.61;68009;1275;1016502;-75
2023/12/15 00:04:03;;;;;;;;;;;;;;;4.77;100.00;99260.34;67996;1275;1015862;-75
2023/12/15 00:07:06;;;;;;;;;;;;;;;4.76;100.00;99266.23;67998;1275;1016180;-74
2023/12/15 00:10:08;;;;;;;;;;;;;;;4.91;100.00;99270.48;68052;1275;1016548;-75
2023/12/15 00:13:11;;;;;;;;;;;;;;;5.00;100.00;99271.39;68024;1275;1016215;-75
2023/12/15 00:16:13;;;;;;;;;;;;;;;5.06;100.00;99277.45;67990;1275;1016477;-74
2023/12/15 00:19:16;;;;;;;;;;;;;;;4.92;100.00;99284.12;68020;1275;1016698;-75
2023/12/15 00:22:19;;;;;;;;;;;;;;;4.98;100.00;99298.31;68090;1275;1017026;-74
2023/12/15 00:25:21;;;;;;;;;;;;;;;4.86;100.00;99308.75;68008;1275;1016727;-75
2023/12/15 00:28:24;;;;;;;;;;;;;;;4.79;100.00;99317.26;67985;1275;1018154;-75
2023/12/15 00:31:26;;;;;;;;;;;;;;;4.70;100.00;99321.69;68043;1275;1016311;-74
2023/12/15 00:34:29;;;;;;;;;;;;;;;4.56;100.00;99328.65;68015;1275;1016178;-74
2023/12/15 00:37:31;;;;;;;;;;;;;;;4.52;100.00;99335.55;67973;1275;1016433;-75
2023/12/15 00:40:34;;;;;;;;;;;;;;;4.62;100.00;99339.39;68016;1275;1018954;-75
2023/12/15 00:43:37;;;;;;;;;;;;;;;4.89;100.00;99348.14;68040;1275;1016426;-75
2023/12/15 00:46:42;;;;;;;;;;;;;;;4.79;100.00;99350.01;68032;1275;1016389;-75
2023/12/15 00:49:45;;;;;;;;;;;;;;;5.01;100.00;99356.83;68056;1275;1016358;-75
2023/12/15 00:52:47;;;;;;;;;;;;;;;5.13;100.00;99359.42;68041;1275;1018592;-74
2023/12/15 00:55:50;;;;;;;;;;;;;;;4.91;100.00;99364.55;67965;1275;1016393;-73
2023/12/15 00:58:53;;;;;;;;;;;;;;;4.79;100.00;99365.43;68032;1275;1016472;-75
2023/12/15 01:01:55;;;;;;;;;;;;;;;4.71;100.00;99368.08;68054;1275;1016355;-75
2023/12/15 01:04:58;;;;;;;;;;;;;;;4.83;100.00;99371.36;68019;1275;1016444;-75
2023/12/15 01:08:01;;;;;;;;;;;;;;;4.83;100.00;99376.24;68020;1275;1016252;-74
2023/12/15 01:11:03;;;;;;;;;;;;;;;4.80;100.00;99385.85;68010;1275;1016522;-74
2023/12/15 01:14:06;;;;;;;;;;;;;;;4.89;100.00;99388.88;68032;1275;1015915;-75
2023/12/15 01:17:10;;;;;;;;;;;;;;;4.77;100.00;99402.04;67988;1275;1016052;-74
2023/12/15 01:20:14;;;;;;;;;;;;;;;4.80;100.00;99398.50;68013;1275;1018006;-74
2023/12/15 01:23:17;;;;;;;;;;;;;;;4.82;100.00;99404.15;68002;1275;1016468;-74
2023/12/15 01:26:20;;;;;;;;;;;;;;;4.72;100.00;99403.92;68039;1275;1016406;-75
2023/12/15 01:29:23;;;;;;;;;;;;;;;4.79;100.00;99406.52;67954;1275;1016414;-74
2023/12/15 01:32:25;;;;;;;;;;;;;;;4.85;100.00;99413.25;68033;1275;1016149;-75
2023/12/15 01:35:28;;;;;;;;;;;;;;;4.79;100.00;99418.27;68058;1275;1016191;-75
2023/12/15 01:38:30;;;;;;;;;;;;;;;4.78;100.00;99422.63;68006;1275;1016078;-74
2023/12/15 01:41:33;;;;;;;;;;;;;;;4.66;100.00;99431.61;67991;1275;1016294;-74
2023/12/15 01:44:36;;;;;;;;;;;;;;;4.37;100.00;99437.05;68070;1275;1016503;-74
2023/12/15 01:47:38;;;;;;;;;;;;;;;4.27;100.00;99447.02;67999;1275;1016367;-74
2023/12/15 01:50:41;;;;;;;;;;;;;;;4.41;100.00;99455.30;68023;1275;1016178;-75
2023/12/15 01:53:44;;;;;;;;;;;;;;;5.01;100.00;99460.13;68050;1275;1016726;-74
2023/12/15 01:56:46;;;;;;;;;;;;;;;5.03;100.00;99466.46;68022;1275;1016513;-76
2023/12/15 01:59:49;;;;;;;;;;;;;;;5.11;100.00;99466.59;68034;1275;1016507;-74
2023/12/15 02:02:52;;;;;;;;;;;;;;;5.48;100.00;99472.11;68050;1275;1016184;-75
2023/12/15 02:05:55;;;;;;;;;;;;;;;5.23;100.00;99483.97;68003;1275;1016394;-74
2023/12/15 02:08:57;;;;;;;;;;;;;;;5.00;100.00;99486.50;68032;1275;1015898;-75
2023/12/15 02:12:00;;;;;;;;;;;;;;;4.77;100.00;99495.44;68024;1275;1018207;-75
2023/12/15 02:15:03;;;;;;;;;;;;;;;4.82;100.00;99496.86;68003;1275;1016762;-75
2023/12/15 02:18:05;;;;;;;;;;;;;;;4.69;100.00;99498.94;68003;1275;1016397;-75
2023/12/15 02:21:08;;;;;;;;;;;;;;;4.89;100.00;99497.38;68067;1275;1018192;-74
2023/12/15 02:24:11;;;;;;;;;;;;;;;4.95;100.00;99501.89;68037;1275;1016705;-75
2023/12/15 02:27:13;;;;;;;;;;;;;;;4.85;100.00;99513.61;68032;1275;1017220;-75
2023/12/15 02:30:16;;;;;;;;;;;;;;;4.87;100.00;99521.70;68022;1275;1016464;-75
2023/12/15 02:33:18;;;;;;;;;;;;;;;4.90;100.00;99524.39;68036;1275;1016490;-75
2023/12/15 02:36:21;;;;;;;;;;;;;;;4.82;100.00;99522.17;67948;1275;1016430;-75
2023/12/15 02:39:24;;;;;;;;;;;;;;;4.73;100.00;99525.70;68051;1275;1016777;-73
2023/12/15 02:42:26;;;;;;;;;;;;;;;4.78;100.00;99529.38;68044;1275;1016784;-74
2023/12/15 02:45:29;;;;;;;;;;;;;;;4.74;100.00;99550.44;67988;1275;1016352;-74
2023/12/15 02:48:31;;;;;;;;;;;;;;;4.71;100.00;99549.48;68033;1275;1016355;-74
2023/12/15 02:51:34;;;;;;;;;;;;;;;4.77;100.00;99557.31;68069;1275;1016240;-74
2023/12/15 02:54:37;;;;;;;;;;;;;;;4.84;100.00;99563.88;68053;1275;1016475;-74
2023/12/15 02:57:39;;;;;;;;;;;;;;;4.76;100.00;99571.36;68005;1275;1016499;-74
2023/12/15 03:00:42;;;;;;;;;;;;;;;4.78;100.00;99576.34;67981;1275;1016797;-75
2023/12/15 03:03:44;;;;;;;;;;;;;;;4.74;100.00;99584.77;68013;1275;1017038;-75
2023/12/15 03:06:47;;;;;;;;;;;;;;;4.77;100.00;99592.30;68001;1275;1016520;-74
2023/12/15 03:09:50;;;;;;;;;;;;;;;4.76;100.00;99596.84;67916;1275;1016229;-73
2023/12/15 03:12:53;;;;;;;;;;;;;;;4.66;100.00;99598.27;68045;1275;1016499;-75
2023/12/15 03:16:14;;;;;;;;;;;;;;;4.54;100.00;99609.85;68031;1275;1016423;-74
2023/12/15 03:19:20;;;;;;;;;;;;;;;4.66;100.00;99609.20;68015;1275;1016433;-74
2023/12/15 03:22:22;;;;;;;;;;;;;;;4.69;100.00;99614.34;68024;1275;1016500;-74
2023/12/15 03:25:25;;;;;;;;;;;;;;;4.71;100.00;99618.62;68059;1275;1016422;-74
2023/12/15 03:28:27;;;;;;;;;;;;;;;4.66;100.00;99625.84;68038;1275;1016334;-75
2023/12/15 03:31:30;;;;;;;;;;;;;;;4.53;100.00;99632.36;68010;1275;1016487;-75
2023/12/15 03:34:32;;;;;;;;;;;;;;;4.04;100.00;99644.71;68050;1275;1016411;-74
2023/12/15 03:37:35;;;;;;;;;;;;;;;4.04;100.00;99640.21;68060;1275;1017630;-74
2023/12/15 03:40:38;;;;;;;;;;;;;;;3.91;100.00;99643.43;67964;1275;1016175;-74
2023/12/15 03:43:40;;;;;;;;;;;;;;;3.94;100.00;99644.42;68034;1275;1016424;-74
2023/12/15 03:46:43;;;;;;;;;;;;;;;3.82;100.00;99652.59;68000;1275;1016244;-74
2023/12/15 03:49:46;;;;;;;;;;;;;;;3.73;100.00;99655.22;67999;1275;1018862;-75
2023/12/15 03:52:49;;;;;;;;;;;;;;;3.71;100.00;99664.75;68028;1275;1017085;-74
2023/12/15 03:55:52;;;;;;;;;;;;;;;3.63;100.00;99663.70;68071;1275;1016836;-74
2023/12/15 03:58:54;;;;;;;;;;;;;;;3.52;100.00;99666.15;68021;1275;1018188;-73
2023/12/15 04:01:57;;;;;;;;;;;;;;;3.52;100.00;99672.55;67982;1275;1016421;-74
2023/12/15 04:04:59;;;;;;;;;;;;;;;3.53;100.00;99681.36;68015;1275;1016557;-74
2023/12/15 04:08:03;;;;;;;;;;;;;;;3.48;100.00;99686.45;68071;1275;1016418;-75
2023/12/15 04:11:06;;;;;;;;;;;;;;;3.37;100.00;99695.30;68007;1275;1016465;-74
2023/12/15 04:14:09;;;;;;;;;;;;;;;3.38;100.00;99697.20;68040;1275;1016370;-74
2023/12/15 04:17:12;;;;;;;;;;;;;;;3.41;100.00;99703.02;67983;1275;1018186;-74
2023/12/15 04:20:15;;;;;;;;;;;;;;;3.34;100.00;99705.56;68039;1275;1016445;-74
2023/12/15 04:23:18;;;;;;;;;;;;;;;3.32;100.00;99709.59;67997;1275;1018074;-74
2023/12/15 04:26:20;;;;;;;;;;;;;;;3.35;100.00;99711.25;68048;1275;1017382;-75
2023/12/15 04:29:23;;;;;;;;;;;;;;;3.42;100.00;99716.30;68054;1275;1016171;-74
2023/12/15 04:32:25;;;;;;;;;;;;;;;3.44;100.00;99724.23;67997;1275;1015733;-74
2023/12/15 04:35:28;;;;;;;;;;;;;;;3.24;100.00;99731.66;68053;1275;1016426;-74
2023/12/15 04:38:30;;;;;;;;;;;;;;;3.19;100.00;99732.63;68027;1275;1016458;-74
2023/12/15 04:41:33;;;;;;;;;;;;;;;3.23;100.00;99737.02;67999;1275;1016235;-74
2023/12/15 04:44:36;;;;;;;;;;;;;;;3.20;100.00;99743.12;68020;1275;1016107;-74
2023/12/15 04:47:39;;;;;;;;;;;;;;;3.23;100.00;99747.40;68037;1275;1016618;-74
2023/12/15 04:50:42;;;;;;;;;;;;;;;3.21;100.00;99754.36;68031;1275;1016482;-74
2023/12/15 04:53:44;;;;;;;;;;;;;;;3.18;100.00;99752.31;68052;1275;1018355;-75
2023/12/15 04:56:47;;;;;;;;;;;;;;;3.20;100.00;99759.02;68048;1275;1019527;-74
2023/12/15 04:59:49;;;;;;;;;;;;;;;3.18;100.00;99760.27;67999;1275;1016359;-74
2023/12/15 05:02:55;;;;;;;;;;;;;;;3.12;100.00;99759.68;67997;1275;1016439;-74
2023/12/15 05:06:19;;;;;;;;;;;;;;;2.96;100.00;99766.14;68002;1275;1016475;-75
2023/12/15 05:09:22;;;;;;;;;;;;;;;2.92;100.00;99772.41;67993;1275;1016259;-74
2023/12/15 05:12:25;;;;;;;;;;;;;;;2.95;100.00;99779.11;67994;1275;1016288;-74
2023/12/15 05:15:28;;;;;;;;;;;;;;;2.91;100.00;99788.15;67898;1275;1016450;-75
2023/12/15 05:18:31;;;;;;;;;;;;;;;2.89;100.00;99784.38;68045;1275;1018914;-74
2023/12/15 05:21:34;;;;;;;;;;;;;;;2.97;100.00;99786.17;67992;1275;1016495;-74
2023/12/15 05:24:48;;;;;;;;;;;;;;;3.12;100.00;99792.87;67964;1275;1016439;-74
2023/12/15 05:27:53;;;;;;;;;;;;;;;3.14;100.00;99803.02;65317;1275;5378089;-74
2023/12/15 05:30:56;;;;;;;;;;;;;;;3.20;100.00;99810.88;67977;1275;1016503;-74
2023/12/15 05:33:58;;;;;;;;;;;;;;;3.26;100.00;99812.88;68052;1275;1016452;-74
2023/12/15 05:37:01;;;;;;;;;;;;;;;3.33;100.00;99825.02;68005;1275;1016355;-75
2023/12/15 05:40:04;;;;;;;;;;;;;;;3.51;100.00;99819.39;67991;1275;1015987;-74
2023/12/15 05:43:07;;;;;;;;;;;;;;;3.52;100.00;99819.04;68021;1275;1016281;-74
2023/12/15 05:46:10;;;;;;;;;;;;;;;3.68;100.00;99815.85;68027;1275;1016397;-74
2023/12/15 05:49:12;;;;;;;;;;;;;;;3.76;100.00;99819.52;68071;1275;1016424;-74
2023/12/15 05:52:15;;;;;;;;;;;;;;;3.78;100.00;99827.26;68047;1275;1016449;-74
2023/12/15 05:55:18;;;;;;;;;;;;;;;3.81;100.00;99828.05;68066;1275;1016015;-74
2023/12/15 05:58:24;;;;;;;;;;;;;;;3.70;100.00;99824.29;68048;1275;1016579;-74
2023/12/15 06:01:26;;;;;;;;;;;;;;;3.47;100.00;99854.21;68013;1275;1016202;-74
2023/12/15 06:04:29;;;;;;;;;;;;;;;3.30;100.00;99847.91;68074;1275;1017187;-74
2023/12/15 06:07:33;;;;;;;;;;;;;;;3.24;100.00;99851.98;67989;1275;1016268;-74
2023/12/15 06:10:36;;;;;;;;;;;;;;;3.34;100.00;99862.36;68016;1275;1016364;-74
2023/12/15 06:13:41;;;;;;;;;;;;;;;3.26;100.00;99872.70;68055;1275;1017923;-78
2023/12/15 06:16:47;;;;;;;;;;;;;;;3.35;100.00;99881.21;68046;1275;1018798;-74
2023/12/15 06:19:49;;;;;;;;;;;;;;;3.40;100.00;99885.80;68007;1275;1016456;-74
2023/12/15 06:22:53;;;;;;;;;;;;;;;3.38;100.00;99896.37;68008;1275;1016359;-74
2023/12/15 06:25:55;;;;;;;;;;;;;;;3.37;100.00;99905.20;68020;1275;1018401;-74
2023/12/15 06:28:58;;;;;;;;;;;;;;;3.40;100.00;99912.95;68021;1275;1016340;-74
2023/12/15 06:32:01;;;;;;;;;;;;;;;3.43;100.00;99928.29;68037;1275;1016506;-74
2023/12/15 06:35:05;;;;;;;;;;;;;;;3.48;100.00;99925.27;68052;1275;1016253;-74
2023/12/15 06:38:08;;;;;;;;;;;;;;;3.39;100.00;99928.34;68004;1275;1016145;-73
2023/12/15 06:41:11;;;;;;;;;;;;;;;3.41;100.00;99929.52;68043;1275;1016094;-74
2023/12/15 06:44:14;;;;;;;;;;;;;;;3.53;100.00;99933.85;68015;1275;1018833;-75
2023/12/15 06:47:17;;;;;;;;;;;;;;;3.55;100.00;99936.59;68044;1275;1016493;-75
2023/12/15 06:50:19;;;;;;;;;;;;;;;3.65;100.00;99932.99;68062;1275;1016308;-74
2023/12/15 06:53:22;;;;;;;;;;;;;;;3.60;100.00;99941.71;68033;1275;1016467;-74
2023/12/15 06:56:24;;;;;;;;;;;;;;;3.60;100.00;99954.86;67996;1275;1016257;-74
2023/12/15 06:59:27;;;;;;;;;;;;;;;3.62;100.00;99960.70;68059;1275;1016248;-75
2023/12/15 07:02:29;;;;;;;;;;;;;;;3.60;100.00;99967.83;68052;1275;1016420;-74
2023/12/15 07:08:55;;;;;;;;;;;;;;;3.60;100.00;99975.96;68039;1275;1016594;-74
2023/12/15 07:11:58;;;;;;;;;;;;;;;3.52;100.00;99978.83;68042;1275;1016484;-74
2023/12/15 07:15:01;;;;;;;;;;;;;;;3.50;100.00;99978.17;67990;1275;1016175;-74
2023/12/15 07:18:03;;;;;;;;;;;;;;;3.63;100.00;99983.88;68067;1275;1016431;-74
2023/12/15 07:21:06;;;;;;;;;;;;;;;3.66;100.00;99989.71;68058;1275;1016208;-73
2023/12/15 07:24:08;;;;;;;;;;;;;;;3.69;100.00;99991.07;67999;1275;1016493;-74
2023/12/15 07:27:11;;;;;;;;;;;;;;;3.74;100.00;99992.55;68040;1275;1016378;-74
2023/12/15 07:30:13;;;;;;;;;;;;;;;3.80;100.00;99993.48;68008;1275;1017538;-74
2023/12/15 07:33:16;;;;;;;;;;;;;;;3.83;100.00;100000.90;68058;1275;1016542;-73
2023/12/15 07:36:18;;;;;;;;;;;;;;;3.72;100.00;100007.10;67937;1275;1016003;-74
2023/12/15 07:39:22;;;;;;;;;;;;;;;3.70;100.00;100005.91;68022;1275;1016438;-75
2023/12/15 07:42:26;;;;;;;;;;;;;;;3.88;100.00;100011.73;68022;1275;1016138;-74
2023/12/15 07:45:29;;;;;;;;;;;;;;;3.88;100.00;100020.54;67992;1275;1016448;-74
2023/12/15 07:48:31;;;;;;;;;;;;;;;4.06;100.00;100017.69;68045;1275;1016465;-74
2023/12/15 07:51:34;;;;;;;;;;;;;;;4.11;100.00;100022.29;67983;1275;1016858;-75
2023/12/15 07:54:37;;;;;;;;;;;;;;;4.13;100.00;100026.77;68053;1275;1016370;-74
2023/12/15 07:57:41;;;;;;;;;;;;;;;4.09;100.00;100031.15;67954;1275;1016047;-75
2023/12/15 08:00:44;;;;;;;;;;;;;;;4.14;100.00;100041.11;68014;1275;1016328;-74
2023/12/15 08:03:47;;;;;;;;;;;;;;;4.16;100.00;100043.14;68005;1275;1016255;-74
2023/12/15 08:06:50;;;;;;;;;;;;;;;4.15;100.00;100043.16;68027;1275;1016480;-75
2023/12/15 08:09:52;;;;;;;;;;;;;;;4.22;100.00;100044.80;68029;1275;1016702;-74
2023/12/15 08:12:55;;;;;;;;;;;;;;;4.28;100.00;100047.48;68042;1275;1016257;-75
2023/12/15 08:15:59;;;;;;;;;;;;;;;4.23;100.00;100059.16;67971;1275;1016389;-74
2023/12/15 08:19:05;;;;;;;;;;;;;;;4.32;100.00;100055.89;68012;1275;1017871;-74
2023/12/15 08:22:07;;;;;;;;;;;;;;;4.45;100.00;100049.80;67994;1275;1016352;-75
2023/12/15 08:25:10;;;;;;;;;;;;;;;4.58;100.00;100057.04;68055;1275;1016948;-74
2023/12/15 08:28:12;;;;;;;;;;;;;;;4.58;100.00;100060.84;68051;1275;1016462;-75
2023/12/15 08:31:15;;;;;;;;;;;;;;;4.51;100.00;100062.34;68011;1275;1016442;-75
2023/12/15 08:34:19;;;;;;;;;;;;;;;4.48;100.00;100063.95;68029;1275;1016507;-73
2023/12/15 08:37:22;;;;;;;;;;;;;;;4.45;100.00;100066.09;68003;1275;1016436;-74
2023/12/15 08:40:27;;;;;;;;;;;;;;;4.48;100.00;100071.92;68055;1275;1016346;-74
2023/12/15 08:43:30;;;;;;;;;;;;;;;4.68;100.00;100078.17;68035;1275;1016481;-74
2023/12/15 08:46:33;;;;;;;;;;;;;;;4.77;100.00;100078.20;68038;1275;1016657;-74
2023/12/15 08:49:36;;;;;;;;;;;;;;;4.90;100.00;100086.13;68003;1275;1016009;-75
2023/12/15 08:52:39;;;;;;;;;;;;;;;4.93;100.00;100088.67;68050;1275;1016457;-75
2023/12/15 08:55:43;;;;;;;;;;;;;;;4.78;100.00;100091.88;68026;1275;1016498;-75
2023/12/15 08:58:45;;;;;;;;;;;;;;;4.66;100.00;100094.31;67984;1275;1018506;-75
2023/12/15 09:01:48;;;;;;;;;;;;;;;4.65;100.00;100096.60;67942;1275;1016229;-75
2023/12/15 09:04:51;;;;;;;;;;;;;;;4.65;100.00;100093.30;67965;1275;1016489;-75
2023/12/15 09:07:54;;;;;;;;;;;;;;;4.68;100.00;100098.96;68000;1275;1016473;-75
2023/12/15 09:10:57;;;;;;;;;;;;;;;4.78;100.00;100101.40;67995;1275;1016160;-74
2023/12/15 09:14:01;;;;;;;;;;;;;;;4.78;100.00;100099.51;68046;1275;1019565;-75
2023/12/15 09:17:04;;;;;;;;;;;;;;;4.85;100.00;100106.67;68034;1275;1016425;-75
2023/12/15 09:20:06;;;;;;;;;;;;;;;4.83;100.00;100112.42;68058;1275;1016444;-75
2023/12/15 09:23:09;;;;;;;;;;;;;;;4.80;100.00;100119.75;68026;1275;1016213;-75
2023/12/15 09:26:13;;;;;;;;;;;;;;;4.90;100.00;100122.54;68040;1275;1016422;-75
2023/12/15 09:29:15;;;;;;;;;;;;;;;5.07;100.00;100123.80;67991;1275;1016476;-74
2023/12/15 09:32:18;;;;;;;;;;;;;;;5.05;100.00;100129.04;68014;1275;1016271;-76
2023/12/15 09:35:20;;;;;;;;;;;;;;;4.96;100.00;100134.38;68031;1275;1016418;-75
2023/12/15 09:38:23;;;;;;;;;;;;;;;4.84;100.00;100134.41;68084;1275;1016558;-75
2023/12/15 09:41:25;;;;;;;;;;;;;;;4.72;100.00;100142.23;68024;1275;1016441;-75
2023/12/15 09:44:28;;;;;;;;;;;;;;;4.59;100.00;100144.16;68055;1275;1017684;-74
2023/12/15 09:47:31;;;;;;;;;;;;;;;4.44;100.00;100140.23;67967;1275;1016392;-74
2023/12/15 09:50:34;;;;;;;;;;;;;;;4.44;100.00;100137.64;67990;1275;1016429;-75
2023/12/15 09:53:37;;;;;;;;;;;;;;;4.37;100.00;100143.80;68027;1275;1015877;-75
2023/12/15 09:56:40;;;;;;;;;;;;;;;4.06;100.00;100141.27;67982;1275;1016508;-75
2023/12/15 09:59:42;;;;;;;;;;;;;;;4.38;100.00;100142.90;68023;1275;1016304;-75
2023/12/15 10:02:45;;;;;;;;;;;;;;;4.52;100.00;100142.53;68058;1275;1017229;-74
2023/12/15 10:05:48;;;;;;;;;;;;;;;4.66;100.00;100143.71;68013;1275;1016454;-75
2023/12/15 10:08:50;;;;;;;;;;;;;;;4.69;100.00;100141.77;68040;1275;1016482;-75
2023/12/15 10:11:53;;;;;;;;;;;;;;;4.54;100.00;100151.17;68048;1275;1016304;-75
2023/12/15 10:14:56;;;;;;;;;;;;;;;4.47;100.00;100149.02;68025;1275;1016416;-75
2023/12/15 10:17:59;;;;;;;;;;;;;;;4.41;100.00;100149.98;67989;1275;1018400;-75
2023/12/15 10:21:04;;;;;;;;;;;;;;;4.50;100.00;100153.83;68008;1275;1016204;-77
2023/12/15 10:24:07;;;;;;;;;;;;;;;4.41;100.00;100158.11;68011;1275;1016752;-75
2023/12/15 10:27:09;;;;;;;;;;;;;;;4.56;100.00;100154.27;67946;1275;1016794;-75
2023/12/15 10:30:12;;;;;;;;;;;;;;;4.40;100.00;100157.44;68042;1275;1016737;-76
2023/12/15 10:33:16;;;;;;;;;;;;;;;4.34;100.00;100153.54;68043;1275;1019117;-75
2023/12/15 10:36:19;;;;;;;;;;;;;;;4.36;100.00;100159.91;68052;1275;1017858;-74
2023/12/15 10:39:24;;;;;;;;;;;;;;;4.51;100.00;100159.36;67982;1275;1016477;-76
2023/12/15 10:42:27;;;;;;;;;;;;;;;4.45;100.00;100158.94;68050;1275;1016422;-75
2023/12/15 10:45:29;;;;;;;;;;;;;;;4.52;100.00;100156.58;68071;1275;1018565;-75
2023/12/15 10:48:32;;;;;;;;;;;;;;;4.50;100.00;100164.05;68005;1275;1016442;-75
2023/12/15 10:51:34;;;;;;;;;;;;;;;4.62;100.00;100169.06;68036;1275;1016478;-75
2023/12/15 10:54:37;;;;;;;;;;;;;;;4.58;100.00;100171.55;68043;1275;1018879;-75
2023/12/15 10:57:41;;;;;;;;;;;;;;;4.49;100.00;100173.41;68040;1275;1016490;-75
2023/12/15 11:00:46;;;;;;;;;;;;;;;4.48;100.00;100172.73;67989;1275;1016053;-75
2023/12/15 11:03:49;;;;;;;;;;;;;;;4.52;100.00;100175.97;68046;1275;1018761;-75
2023/12/15 11:06:51;;;;;;;;;;;;;;;4.45;100.00;100180.41;68019;1275;1016332;-75
2023/12/15 11:09:54;;;;;;;;;;;;;;;4.50;100.00;100176.35;67992;1275;1016458;-75
2023/12/15 11:12:56;;;;;;;;;;;;;;;4.73;100.00;100176.19;68007;1275;1016443;-74
2023/12/15 11:15:59;;;;;;;;;;;;;;;4.67;100.00;100174.89;68001;1275;1016382;-75
2023/12/15 11:19:02;;;;;;;;;;;;;;;4.61;100.00;100182.06;68000;1275;1016464;-75
2023/12/15 11:22:08;;;;;;;;;;;;;;;4.61;100.00;100179.99;67987;1275;1016432;-75
2023/12/15 11:25:11;;;;;;;;;;;;;;;4.59;100.00;100187.99;68048;1275;1016520;-75
2023/12/15 11:28:15;;;;;;;;;;;;;;;4.50;100.00;100191.08;68034;1275;1016329;-75
2023/12/15 11:31:18;;;;;;;;;;;;;;;4.46;100.00;100195.11;68009;1275;1016961;-74
2023/12/15 11:34:21;;;;;;;;;;;;;;;4.47;100.00;100190.09;68039;1275;1016561;-75
2023/12/15 11:37:23;;;;;;;;;;;;;;;4.49;100.00;100189.70;68026;1275;1016042;-74
2023/12/15 11:40:26;;;;;;;;;;;;;;;4.55;100.00;100188.57;67979;1275;1016364;-74
2023/12/15 11:43:30;;;;;;;;;;;;;;;4.55;100.00;100189.61;67976;1275;1017098;-75
2023/12/15 11:46:33;;;;;;;;;;;;;;;4.73;100.00;100191.25;68025;1275;1016459;-74
2023/12/15 11:49:39;;;;;;;;;;;;;;;4.81;100.00;100194.25;67994;1275;1016509;-75
2023/12/15 11:52:42;;;;;;;;;;;;;;;4.84;100.00;100197.51;67958;1275;1016389;-75
2023/12/15 11:55:45;;;;;;;;;;;;;;;4.86;100.00;100199.89;67998;1275;1016287;-75
2023/12/15 11:58:48;;;;;;;;;;;;;;;4.78;100.00;100203.14;68012;1275;1016543;-75
2023/12/15 12:01:51;;;;;;;;;;;;;;;4.94;100.00;100207.39;68032;1275;1016874;-75
2023/12/15 12:04:55;;;;;;;;;;;;;;;5.09;100.00;100216.52;68030;1275;1016461;-75
2023/12/15 12:07:58;;;;;;;;;;;;;;;4.97;100.00;100221.39;68004;1275;1016238;-75
2023/12/15 12:11:01;;;;;;;;;;;;;;;4.96;100.00;100228.52;68040;1275;1015927;-76
2023/12/15 12:14:04;;;;;;;;;;;;;;;4.99;100.00;100227.42;68008;1275;1016321;-75
2023/12/15 12:17:07;;;;;;;;;;;;;;;4.96;100.00;100222.95;67960;1275;1016458;-74
2023/12/15 12:20:10;;;;;;;;;;;;;;;4.88;100.00;100226.89;67995;1275;1016494;-75
2023/12/15 12:23:13;;;;;;;;;;;;;;;4.88;100.00;100231.59;67968;1275;1016339;-75
2023/12/15 12:26:16;;;;;;;;;;;;;;;4.99;100.00;100227.44;68016;1275;1016265;-75
2023/12/15 12:29:19;;;;;;;;;;;;;;;4.93;100.00;100225.27;67995;1275;1016223;-74
2023/12/15 12:32:22;;;;;;;;;;;;;;;4.97;100.00;100227.98;68024;1275;1016972;-75
2023/12/15 12:35:24;;;;;;;;;;;;;;;5.04;100.00;100235.50;67998;1275;1016330;-74
2023/12/15 12:38:27;;;;;;;;;;;;;;;4.96;100.00;100250.70;67968;1275;1016478;-76
2023/12/15 12:41:29;;;;;;;;;;;;;;;4.92;100.00;100252.31;68027;1275;1016308;-75
2023/12/15 12:44:32;;;;;;;;;;;;;;;5.03;100.00;100251.11;67974;1275;1016300;-75
2023/12/15 12:47:37;;;;;;;;;;;;;;;5.02;100.00;100256.01;67979;1275;1016345;-75
2023/12/15 12:50:40;;;;;;;;;;;;;;;4.95;100.00;100257.83;68004;1275;1016419;-75
2023/12/15 12:53:43;;;;;;;;;;;;;;;4.90;100.00;100257.90;67946;1275;1016488;-74
2023/12/15 12:56:45;;;;;;;;;;;;;;;4.82;100.00;100253.67;67968;1275;1016393;-75
2023/12/15 12:59:48;;;;;;;;;;;;;;;4.74;100.00;100254.14;68020;1275;1016275;-75
2023/12/15 13:02:50;;;;;;;;;;;;;;;4.74;100.00;100258.98;68031;1275;1015755;-75
2023/12/15 13:05:55;;;;;;;;;;;;;;;4.72;100.00;100255.20;67997;1275;1016342;-74
2023/12/15 13:08:57;;;;;;;;;;;;;;;4.91;100.00;100252.34;68004;1275;1016380;-74
2023/12/15 13:12:00;;;;;;;;;;;;;;;4.93;100.00;100247.80;68037;1275;1016390;-74
2023/12/15 13:15:03;;;;;;;;;;;;;;;4.99;100.00;100252.21;68027;1275;1016122;-75
2023/12/15 13:18:09;;;;;;;;;;;;;;;4.92;100.00;100259.45;67996;1275;1016302;-74
2023/12/15 13:32:04;;;;;;;;;;;;;;;4.79;100.00;100255.11;67850;1278;1016477;-75
2023/12/15 13:35:08;;;;;;;;;;;;;;;4.81;100.00;100258.03;67834;1278;1016294;-75
2023/12/15 13:38:10;;;;;;;;;;;;;;;4.69;100.00;100263.06;67828;1278;1015987;-75
2023/12/15 13:41:13;;;;;;;;;;;;;;;4.64;100.00;100255.84;67816;1278;1016171;-74
2023/12/15 13:44:26;;;;;;;;;;;;;;;;;;;;;
2023/12/15 13:47:31;;;;;;;;;;;;;;;4.74;100.00;100266.11;67846;1278;1016453;-75
2023/12/15 13:50:36;;;;;;;;;;;;;;;4.75;100.00;100273.72;67803;1278;1016416;-75
2023/12/15 13:53:38;;;;;;;;;;;;;;;4.71;100.00;100273.09;67823;1278;1016448;-75
2023/12/15 13:56:41;;;;;;;;;;;;;;;4.71;100.00;100273.94;68068;1275;1016281;-75
2023/12/15 13:59:44;;;;;;;;;;;;;;;4.76;100.00;100275.10;67974;1275;1016445;-75
2023/12/15 14:02:47;;;;;;;;;;;;;;;4.72;100.00;100278.60;68040;1275;1016553;-75
2023/12/15 14:05:49;;;;;;;;;;;;;;;4.71;100.00;100285.03;67990;1275;1016188;-75
2023/12/15 14:08:52;;;;;;;;;;;;;;;4.76;100.00;100288.42;68042;1275;1016501;-75
2023/12/15 14:11:55;;;;;;;;;;;;;;;4.69;100.00;100293.90;68012;1275;1016405;-75
2023/12/15 14:14:57;;;;;;;;;;;;;;;4.57;100.00;100297.87;67980;1275;1016245;-74
2023/12/15 14:18:00;;;;;;;;;;;;;;;4.47;100.00;100307.00;67987;1275;1016399;-74
2023/12/15 14:21:02;;;;;;;;;;;;;;;4.38;100.00;100311.61;68044;1275;1018530;-75
2023/12/15 14:24:06;;;;;;;;;;;;;;;4.25;100.00;100315.74;68015;1275;1015984;-74
2023/12/15 14:27:08;;;;;;;;;;;;;;;4.14;100.00;100322.61;68071;1275;1016446;-74
2023/12/15 14:30:11;;;;;;;;;;;;;;;3.98;100.00;100325.73;67985;1275;1016070;-75
2023/12/15 14:33:14;;;;;;;;;;;;;;;3.96;100.00;100326.09;67988;1275;1016373;-74
2023/12/15 14:36:17;;;;;;;;;;;;;;;3.92;100.00;100331.84;68053;1275;1017518;-74
2023/12/15 14:39:19;;;;;;;;;;;;;;;3.86;100.00;100334.33;68047;1275;1016245;-74
2023/12/15 14:42:22;;;;;;;;;;;;;;;3.76;100.00;100335.61;67971;1275;1016390;-74
2023/12/15 14:45:26;;;;;;;;;;;;;;;3.67;100.00;100342.09;67952;1275;1016405;-74
2023/12/15 14:48:29;;;;;;;;;;;;;;;3.61;100.00;100342.15;68006;1275;1015961;-75
2023/12/15 14:51:31;;;;;;;;;;;;;;;3.56;100.00;100344.61;68018;1275;1016429;-74
2023/12/15 14:54:35;;;;;;;;;;;;;;;3.66;100.00;100345.05;67985;1275;1018146;-74
2023/12/15 14:57:38;;;;;;;;;;;;;;;3.72;100.00;100348.97;67982;1275;1018198;-74
2023/12/15 15:00:41;;;;;;;;;;;;;;;3.90;100.00;100354.88;67995;1275;1016458;-74
2023/12/15 15:03:43;;;;;;;;;;;;;;;3.93;100.00;100357.11;67972;1275;1016472;-74
2023/12/15 15:06:46;;;;;;;;;;;;;;;3.91;100.00;100359.37;67964;1275;1016275;-74
2023/12/15 15:09:49;;;;;;;;;;;;;;;3.83;100.00;100360.65;67975;1275;1016161;-74
2023/12/15 15:12:51;;;;;;;;;;;;;;;3.85;100.00;100361.84;68017;1275;1018069;-74
2023/12/15 15:15:54;;;;;;;;;;;;;;;3.92;100.00;100362.83;67935;1275;1016361;-74
2023/12/15 15:18:56;;;;;;;;;;;;;;;4.00;100.00;100368.80;67995;1275;1016314;-74
2023/12/15 15:21:59;;;;;;;;;;;;;;;3.91;100.00;100367.51;68032;1275;1016378;-74
2023/12/15 15:25:02;;;;;;;;;;;;;;;3.95;100.00;100366.95;67954;1275;1016039;-74
2023/12/15 15:28:04;;;;;;;;;;;;;;;4.04;100.00;100363.92;67969;1275;1016372;-74
2023/12/15 15:31:07;;;;;;;;;;;;;;;4.15;100.00;100368.32;68036;1275;1016537;-74
2023/12/15 15:34:10;;;;;;;;;;;;;;;4.18;100.00;100379.02;68042;1275;1016240;-74
2023/12/15 15:37:12;;;;;;;;;;;;;;;4.12;100.00;100378.38;68018;1275;1016359;-74